Time;durP1;ratioP1;P1;durP2;ratioP2;P2;SDS_P1;SDS_P2;PMS_P1;PMS_P2;Temp;Humidity;BMP_temperature;BMP_pressure;BME280_temperature;BME280_humidity;BME280_pressure;Samples;Min_cycle;Max_cycle;Signal;HPM_P1;HPM_P2
2023/07/06 00:07:04;;;;;;;;;;;29.30;27.40;;;;;;21176108;28;19924;-59
2023/07/06 00:17:10;;;;;;;;;;;29.20;27.20;;;;;;21176599;28;19950;-58
2023/07/06 00:27:15;;;;;;;;;;;29.20;27.00;;;;;;21174897;28;20006;-59
2023/07/06 00:37:15;;;;;;;;;;;29.20;27.40;;;;;;21174883;28;19927;-63
2023/07/06 00:47:18;;;;;;;;;;;29.10;27.80;;;;;;21174329;28;19931;-59
2023/07/06 00:57:20;;;;;;;;;;;28.90;27.30;;;;;;21173641;28;19924;-58
2023/07/06 01:07:24;;;;;;;;;;;28.80;27.40;;;;;;21173065;28;19931;-61
2023/07/06 01:17:33;;;;;;;;;;;28.60;26.00;;;;;;21171640;28;20014;-59
2023/07/06 01:27:49;;;;;;;;;;;28.40;26.30;;;;;;21169233;28;19975;-60
2023/07/06 01:37:50;;;;;;;;;;;28.20;27.50;;;;;;21169808;28;20292;-60
2023/07/06 01:48:01;;;;;;;;;;;28.10;32.30;;;;;;21168651;28;20027;-60
2023/07/06 01:58:07;;;;;;;;;;;27.90;34.70;;;;;;21166979;28;19924;-59
2023/07/06 02:08:08;;;;;;;;;;;27.80;37.80;;;;;;21167433;28;19924;-58
2023/07/06 02:18:09;;;;;;;;;;;27.60;41.30;;;;;;21166937;28;19976;-59
2023/07/06 02:28:10;;;;;;;;;;;27.40;44.70;;;;;;21165911;28;19963;-59
2023/07/06 02:38:12;;;;;;;;;;;27.10;48.10;;;;;;21164103;28;19927;-59
2023/07/06 02:48:13;;;;;;;;;;;27.00;49.30;;;;;;21164980;28;19927;-59
2023/07/06 02:58:14;;;;;;;;;;;26.90;54.50;;;;;;21162308;28;20299;-58
2023/07/06 03:08:15;;;;;;;;;;;26.60;56.30;;;;;;21163160;28;20376;-58
2023/07/06 03:18:18;;;;;;;;;;;26.50;57.30;;;;;;21163898;28;19923;-58
2023/07/06 03:28:19;;;;;;;;;;;26.40;59.10;;;;;;21162347;28;20454;-58
2023/07/06 03:38:21;;;;;;;;;;;26.20;60.30;;;;;;21162995;28;19946;-59
2023/07/06 03:48:21;;;;;;;;;;;26.10;60.80;;;;;;21161374;28;19955;-58
2023/07/06 03:58:23;;;;;;;;;;;26.00;61.30;;;;;;21162156;28;19924;-57
2023/07/06 04:08:23;;;;;;;;;;;25.90;61.90;;;;;;21172903;28;19923;-59
2023/07/06 04:18:24;;;;;;;;;;;25.90;61.50;;;;;;21176708;28;19928;-59
2023/07/06 04:28:24;;;;;;;;;;;25.70;61.60;;;;;;21174206;28;19928;-59
2023/07/06 04:38:26;;;;;;;;;;;25.50;62.20;;;;;;21173733;28;19928;-58
2023/07/06 04:48:27;;;;;;;;;;;25.50;62.20;;;;;;21171992;28;19924;-61
2023/07/06 04:58:28;;;;;;;;;;;25.40;62.10;;;;;;21172877;28;19982;-59
2023/07/06 05:08:29;;;;;;;;;;;25.40;62.30;;;;;;21171049;28;19924;-59
2023/07/06 05:18:29;;;;;;;;;;;25.40;62.30;;;;;;21170783;28;19923;-61
2023/07/06 05:28:31;;;;;;;;;;;25.40;62.30;;;;;;21169676;28;19931;-58
2023/07/06 05:38:31;;;;;;;;;;;25.40;62.10;;;;;;21168620;28;20023;-59
2023/07/06 05:48:32;;;;;;;;;;;25.30;62.40;;;;;;21167732;28;20380;-59
2023/07/06 05:58:34;;;;;;;;;;;25.40;61.90;;;;;;21168131;28;19924;-58
2023/07/06 06:08:35;;;;;;;;;;;25.50;61.50;;;;;;21167420;28;19976;-58
2023/07/06 06:18:39;;;;;;;;;;;25.60;61.20;;;;;;21166621;28;19974;-58
2023/07/06 06:28:40;;;;;;;;;;;25.60;60.90;;;;;;21166363;28;19923;-58
2023/07/06 06:38:41;;;;;;;;;;;25.60;60.60;;;;;;21165289;28;19930;-58
2023/07/06 06:48:42;;;;;;;;;;;25.70;60.20;;;;;;21164975;28;20026;-58
2023/07/06 06:58:42;;;;;;;;;;;25.70;60.00;;;;;;21163931;28;19924;-59
2023/07/06 07:08:49;;;;;;;;;;;25.80;59.40;;;;;;21163477;28;20030;-59
2023/07/06 07:18:49;;;;;;;;;;;26.10;58.60;;;;;;21163122;28;20006;-59
2023/07/06 07:28:51;;;;;;;;;;;26.30;57.90;;;;;;21162018;28;19978;-60
2023/07/06 07:38:56;;;;;;;;;;;26.60;57.00;;;;;;21165947;28;19924;-59
2023/07/06 07:48:57;;;;;;;;;;;26.90;55.40;;;;;;21178669;28;19923;-59
2023/07/06 07:58:58;;;;;;;;;;;27.20;54.90;;;;;;21178283;28;19924;-58
2023/07/06 08:09:02;;;;;;;;;;;27.30;54.10;;;;;;21175780;28;19931;-60
2023/07/06 08:19:05;;;;;;;;;;;27.60;53.90;;;;;;21176195;28;19923;-59
2023/07/06 08:29:06;;;;;;;;;;;28.00;52.70;;;;;;21175471;28;19935;-60
2023/07/06 08:39:06;;;;;;;;;;;28.20;51.60;;;;;;21173905;28;19978;-60
2023/07/06 08:49:19;;;;;;;;;;;28.30;51.40;;;;;;21172543;28;19927;-60
2023/07/06 08:59:43;;;;;;;;;;;28.60;49.90;;;;;;21171901;28;19927;-65
2023/07/06 09:09:45;;;;;;;;;;;29.10;47.00;;;;;;21170077;28;19924;-61
2023/07/06 09:19:45;;;;;;;;;;;29.30;46.70;;;;;;21170707;28;19927;-60
2023/07/06 09:29:56;;;;;;;;;;;29.40;46.20;;;;;;21169632;28;19924;-60
2023/07/06 09:40:03;;;;;;;;;;;29.40;45.80;;;;;;21168393;28;19966;-59
2023/07/06 09:50:11;;;;;;;;;;;29.60;46.10;;;;;;21167361;28;19977;-60
2023/07/06 10:00:14;;;;;;;;;;;29.70;43.50;;;;;;21166895;28;19923;-64
2023/07/06 10:10:21;;;;;;;;;;;30.10;41.90;;;;;;21164833;28;20008;-64
2023/07/06 10:20:30;;;;;;;;;;;30.40;40.90;;;;;;21165584;28;19923;-66
2023/07/06 10:30:33;;;;;;;;;;;30.40;40.10;;;;;;21163292;28;20018;-65
2023/07/06 10:40:37;;;;;;;;;;;30.60;38.90;;;;;;21161824;28;19930;-59
2023/07/06 10:50:46;;;;;;;;;;;30.50;38.10;;;;;;21162507;28;19970;-58
2023/07/06 11:00:47;;;;;;;;;;;30.80;37.30;;;;;;21162968;28;19930;-57
2023/07/06 11:10:48;;;;;;;;;;;30.80;36.50;;;;;;21163619;28;20376;-57
2023/07/06 11:20:52;;;;;;;;;;;31.10;33.40;;;;;;21179649;28;20403;-57
2023/07/06 11:30:53;;;;;;;;;;;31.40;33.00;;;;;;21181299;28;19924;-58
2023/07/06 11:41:09;;;;;;;;;;;31.70;32.70;;;;;;21179407;28;19923;-58
2023/07/06 11:51:09;;;;;;;;;;;31.90;31.70;;;;;;21178424;28;19927;-59
2023/07/06 12:01:20;;;;;;;;;;;32.10;29.80;;;;;;21177171;28;19931;-58
2023/07/06 12:11:22;;;;;;;;;;;32.20;27.80;;;;;;21176303;28;19924;-58
2023/07/06 12:21:23;;;;;;;;;;;32.50;26.90;;;;;;21175498;28;19963;-58
2023/07/06 12:31:25;;;;;;;;;;;32.60;27.00;;;;;;21175416;28;20389;-58
2023/07/06 12:41:26;;;;;;;;;;;32.40;26.20;;;;;;21174241;28;19943;-59
2023/07/06 12:51:28;;;;;;;;;;;32.50;23.50;;;;;;21173489;28;19923;-58
2023/07/06 13:01:43;;;;;;;;;;;32.80;23.90;;;;;;21172417;28;19963;-58
2023/07/06 13:11:53;;;;;;;;;;;32.80;22.40;;;;;;21172024;28;20315;-58
2023/07/06 13:21:55;;;;;;;;;;;32.90;22.20;;;;;;21171661;28;19931;-59
2023/07/06 13:31:57;;;;;;;;;;;33.00;21.90;;;;;;21170544;28;20466;-60
2023/07/06 13:42:00;;;;;;;;;;;33.10;20.70;;;;;;21169141;28;19924;-60
2023/07/06 13:52:02;;;;;;;;;;;33.30;22.40;;;;;;21167205;28;19928;-60
2023/07/06 14:02:03;;;;;;;;;;;33.20;20.70;;;;;;21168025;28;20359;-58
2023/07/06 14:12:05;;;;;;;;;;;33.30;20.10;;;;;;21166558;28;20007;-58
2023/07/06 14:22:05;;;;;;;;;;;33.50;20.80;;;;;;21165874;28;20356;-60
2023/07/06 14:32:07;;;;;;;;;;;33.60;20.30;;;;;;21165763;28;19927;-58
2023/07/06 14:42:08;;;;;;;;;;;33.60;21.40;;;;;;21163801;28;19931;-60
2023/07/06 14:52:08;;;;;;;;;;;33.50;20.90;;;;;;21163758;28;19931;-60
2023/07/06 15:02:11;;;;;;;;;;;33.70;21.50;;;;;;21163390;28;19924;-58
2023/07/06 15:12:11;;;;;;;;;;;33.70;21.60;;;;;;21163611;28;20373;-58
2023/07/06 15:22:12;;;;;;;;;;;33.80;22.00;;;;;;21163102;28;19924;-58
2023/07/06 15:32:13;;;;;;;;;;;33.80;21.00;;;;;;21162841;28;20019;-56
2023/07/06 15:42:14;;;;;;;;;;;33.90;22.10;;;;;;21162343;28;20023;-58
2023/07/06 15:52:15;;;;;;;;;;;33.70;20.70;;;;;;21162223;28;19923;-58
2023/07/06 16:02:15;;;;;;;;;;;33.80;20.30;;;;;;21169780;28;20058;-57
2023/07/06 16:12:16;;;;;;;;;;;33.70;20.30;;;;;;21175816;28;20304;-58
2023/07/06 16:22:17;;;;;;;;;;;33.70;20.90;;;;;;21175153;28;19971;-58
2023/07/06 16:32:17;;;;;;;;;;;33.70;20.00;;;;;;21174441;28;19971;-58
2023/07/06 16:42:18;;;;;;;;;;;33.60;19.70;;;;;;21175191;28;19931;-58
2023/07/06 16:52:19;;;;;;;;;;;33.50;21.00;;;;;;21174193;28;19924;-59
2023/07/06 17:02:19;;;;;;;;;;;33.40;20.00;;;;;;21173451;28;19924;-57
2023/07/06 17:12:20;;;;;;;;;;;33.40;20.20;;;;;;21171150;28;19924;-59
2023/07/06 17:22:20;;;;;;;;;;;33.10;20.20;;;;;;21162063;28;19923;-59
2023/07/06 17:32:21;;;;;;;;;;;33.30;20.70;;;;;;21168794;28;19924;-60
2023/07/06 17:42:22;;;;;;;;;;;33.30;20.90;;;;;;21168066;28;19975;-58
2023/07/06 17:52:23;;;;;;;;;;;33.20;20.00;;;;;;21168510;28;19974;-57
2023/07/06 18:02:23;;;;;;;;;;;33.10;20.90;;;;;;21166137;28;19923;-56
2023/07/06 18:12:26;;;;;;;;;;;33.00;20.20;;;;;;21164947;28;21350;-57
2023/07/06 18:22:26;;;;;;;;;;;32.70;20.30;;;;;;21165591;28;19928;-56
2023/07/06 18:32:27;;;;;;;;;;;32.60;20.40;;;;;;21165395;28;19977;-57
2023/07/06 18:42:27;;;;;;;;;;;32.60;20.20;;;;;;21165061;28;20053;-57
2023/07/06 18:52:28;;;;;;;;;;;32.20;20.00;;;;;;21163852;28;19978;-56
2023/07/06 19:02:29;;;;;;;;;;;32.10;20.40;;;;;;21163120;28;20014;-58
2023/07/06 19:12:30;;;;;;;;;;;31.80;20.50;;;;;;21162185;28;20373;-57
2023/07/06 19:22:30;;;;;;;;;;;31.70;20.80;;;;;;21161491;28;19924;-57
2023/07/06 19:32:31;;;;;;;;;;;31.60;20.90;;;;;;21162531;28;19932;-57
2023/07/06 19:42:31;;;;;;;;;;;31.30;21.30;;;;;;21179888;28;19975;-57
2023/07/06 19:52:33;;;;;;;;;;;31.10;21.80;;;;;;21176883;28;19973;-58
2023/07/06 20:02:34;;;;;;;;;;;31.00;22.30;;;;;;21174870;28;19979;-57
2023/07/06 20:12:35;;;;;;;;;;;30.80;22.70;;;;;;21174174;28;19941;-56
2023/07/06 20:22:36;;;;;;;;;;;30.60;23.20;;;;;;21174122;28;19924;-57
2023/07/06 20:32:36;;;;;;;;;;;30.40;23.40;;;;;;21174807;28;19928;-57
2023/07/06 20:42:37;;;;;;;;;;;30.20;23.50;;;;;;21172953;28;19924;-57
2023/07/06 20:52:38;;;;;;;;;;;30.10;23.40;;;;;;21172690;28;20411;-57
2023/07/06 21:02:38;;;;;;;;;;;30.00;23.10;;;;;;21172706;28;19977;-58
2023/07/06 21:12:39;;;;;;;;;;;29.80;23.30;;;;;;21172520;28;19967;-57
2023/07/06 21:22:40;;;;;;;;;;;29.60;23.50;;;;;;21171466;28;19941;-57
2023/07/06 21:32:42;;;;;;;;;;;29.60;23.50;;;;;;21170695;28;19931;-57
2023/07/06 21:42:43;;;;;;;;;;;29.40;23.70;;;;;;21169009;28;19931;-56
2023/07/06 21:52:43;;;;;;;;;;;29.30;23.90;;;;;;21167682;28;19924;-57
2023/07/06 22:02:44;;;;;;;;;;;29.20;24.40;;;;;;21166211;28;19923;-55
2023/07/06 22:12:45;;;;;;;;;;;29.10;24.40;;;;;;21167702;28;20457;-56
2023/07/06 22:22:46;;;;;;;;;;;28.90;24.70;;;;;;21166103;28;19996;-57
2023/07/06 22:32:46;;;;;;;;;;;28.90;25.20;;;;;;21165573;28;20361;-56
2023/07/06 22:42:48;;;;;;;;;;;28.90;25.80;;;;;;21164015;28;19923;-59
2023/07/06 22:52:49;;;;;;;;;;;28.90;26.40;;;;;;21164710;28;19930;-57
2023/07/06 23:02:51;;;;;;;;;;;28.90;26.60;;;;;;21164063;28;19924;-56
2023/07/06 23:12:56;;;;;;;;;;;28.90;27.00;;;;;;21161619;28;19963;-56
2023/07/06 23:22:56;;;;;;;;;;;28.70;27.10;;;;;;21163754;28;19948;-56
2023/07/06 23:32:57;;;;;;;;;;;28.40;28.00;;;;;;21163460;28;19924;-56
2023/07/06 23:42:57;;;;;;;;;;;28.20;28.40;;;;;;21162134;28;19924;-56
2023/07/06 23:52:58;;;;;;;;;;;27.90;29.30;;;;;;21162503;28;19976;-56
